»·PEaware :: N39921 KGCN-KHII

N39921 :: KGCN-KHII

FLIGHT INFORMATION

Flight Status: Arrived
Operator: Privately registered:
United States
More flights under this callsign
Pilot: Nickolaus B. (17683)
Aircraft: PIPER PA-32 SARATOGA
(PA32)
More flights by this aircraft type
Origin: KGCN Grand Canyon Natl Park
United States
Destination: KHII Lake Havasu City
United States
More flights between these airports :: More routes between these airports
Route: +PARKS4 PGS V208 PATOK
File this flight plan on PilotEdge
Remarks:
Altitude:
(Current/Filed)
10,500ft
Speed:
(Current/Filed)
160kts
Departed: 13-Feb-18 08:20 PM
Arrived: 13-Feb-18 09:27 PM
Distance/Time
Traveled:
137nm/1:07
Distance/Time
To Go:
Arrived

Flight Plot

Page will automatically refresh every two minutes.

Flight plan parsing failed; only flown route is shown


Map Options




Map Legend


Flown Route
Filed Route
Departure Airport
Arrival Airport
Navaid (VOR, NDB)
Fix

Horizontal Profiles

Position Reports

Time Latitude Longitude Heading Altitude Ground
Speed
13-Feb-18 20:19 35.959639 -112.136415 220 6624ft 0kts
13-Feb-18 20:20 35.959639 -112.136415 220 6624ft 0kts
13-Feb-18 20:21 35.959639 -112.136415 220 6624ft 0kts
13-Feb-18 20:22 35.959639 -112.136415 221 6624ft 0kts
13-Feb-18 20:23 35.960176 -112.136890 40 6621ft 1kts
13-Feb-18 20:24 35.960942 -112.136241 352 6624ft 3kts
13-Feb-18 20:25 35.961075 -112.136306 324 6623ft 0kts
13-Feb-18 20:26 35.961370 -112.137311 232 6621ft 10kts
13-Feb-18 20:27 35.944141 -112.155851 215 7377ft 105kts
13-Feb-18 20:28 35.920914 -112.180740 234 8684ft 119kts
13-Feb-18 20:29 35.924830 -112.221759 279 9946ft 129kts
13-Feb-18 20:30 35.931705 -112.275741 251 10010ft 179kts
13-Feb-18 20:31 35.917421 -112.334745 250 10000ft 180kts
13-Feb-18 20:32 35.903021 -112.393275 249 10001ft 178kts
13-Feb-18 20:33 35.888985 -112.451221 250 10001ft 178kts
13-Feb-18 20:34 35.875180 -112.509678 250 10001ft 178kts
13-Feb-18 20:35 35.861281 -112.568379 250 10001ft 178kts
13-Feb-18 20:36 35.847402 -112.626855 250 10001ft 178kts
13-Feb-18 20:37 35.833708 -112.684418 250 10000ft 177kts
13-Feb-18 20:38 35.819937 -112.742702 250 10000ft 177kts
13-Feb-18 20:39 35.806196 -112.800938 250 10000ft 177kts
13-Feb-18 20:40 35.792315 -112.859080 249 9998ft 178kts
13-Feb-18 20:41 35.778330 -112.917403 249 9995ft 178kts
13-Feb-18 20:42 35.764377 -112.975427 248 9991ft 178kts
13-Feb-18 20:43 35.750397 -113.033430 247 9986ft 178kts
13-Feb-18 20:44 35.736416 -113.091231 247 9976ft 177kts
13-Feb-18 20:45 35.722474 -113.148780 247 9966ft 175kts
13-Feb-18 20:46 35.709276 -113.203142 247 9957ft 174kts
13-Feb-18 20:47 35.695444 -113.259995 247 9949ft 173kts
13-Feb-18 20:48 35.681599 -113.316778 247 9945ft 173kts
13-Feb-18 20:49 35.667807 -113.373221 247 9945ft 173kts
13-Feb-18 20:50 35.653981 -113.429671 247 9946ft 172kts
13-Feb-18 20:51 35.640154 -113.486005 247 9945ft 172kts
13-Feb-18 20:52 35.625983 -113.542106 235 9943ft 169kts
13-Feb-18 20:53 35.592933 -113.580835 217 9945ft 164kts
13-Feb-18 20:54 35.559009 -113.618206 217 9945ft 164kts
13-Feb-18 20:55 35.525730 -113.654730 216 9945ft 164kts
13-Feb-18 20:56 35.491790 -113.691922 216 9944ft 164kts
13-Feb-18 20:57 35.457933 -113.728983 216 9982ft 161kts
13-Feb-18 20:58 35.424289 -113.765747 216 9999ft 163kts
13-Feb-18 20:59 35.390500 -113.802638 216 9999ft 163kts
13-Feb-18 21:00 35.356547 -113.839668 216 9999ft 163kts
13-Feb-18 21:01 35.322609 -113.876636 216 9998ft 163kts
13-Feb-18 21:02 35.288788 -113.913433 216 9998ft 163kts
13-Feb-18 21:03 35.254953 -113.950201 216 9998ft 163kts
13-Feb-18 21:04 35.221553 -113.986455 216 9998ft 163kts
13-Feb-18 21:05 35.187656 -114.023208 216 9998ft 163kts
13-Feb-18 21:06 35.152802 -114.057725 191 10001ft 158kts
13-Feb-18 21:07 35.109853 -114.069166 188 9992ft 158kts
13-Feb-18 21:08 35.066779 -114.079564 187 9988ft 159kts
13-Feb-18 21:09 35.022267 -114.090077 187 9560ft 178kts
13-Feb-18 21:10 34.973797 -114.100818 186 8750ft 193kts
13-Feb-18 21:11 34.921629 -114.112927 194 7952ft 193kts
13-Feb-18 21:12 34.875292 -114.123955 193 7202ft 184kts
13-Feb-18 21:13 34.829981 -114.134597 194 7015ft 153kts
13-Feb-18 21:14 34.790336 -114.143927 194 7009ft 144kts
13-Feb-18 21:15 34.753497 -114.150369 173 7008ft 145kts
13-Feb-18 21:16 34.719012 -114.141802 172 7001ft 151kts
13-Feb-18 21:17 34.680786 -114.132234 172 6999ft 156kts
13-Feb-18 21:18 34.638956 -114.121786 172 6999ft 158kts
13-Feb-18 21:19 34.597065 -114.111337 172 6999ft 158kts
13-Feb-18 21:20 34.554885 -114.100826 172 6999ft 158kts
13-Feb-18 21:21 34.512228 -114.090209 172 6999ft 158kts
13-Feb-18 21:22 34.469600 -114.079609 172 6999ft 158kts
13-Feb-18 21:23 34.428756 -114.070707 196 6991ft 141kts
13-Feb-18 21:24 34.403667 -114.109101 240 6093ft 154kts
13-Feb-18 21:25 34.382571 -114.152539 241 5160ft 155kts
13-Feb-18 21:26 34.362453 -114.197889 270 4351ft 146kts
13-Feb-18 21:27 34.391017 -114.229926 327 3633ft 148kts
13-Feb-18 21:28 34.424125 -114.253493 328 3499ft 133kts
13-Feb-18 21:29 34.455497 -114.275801 328 3416ft 137kts
13-Feb-18 21:30 34.484957 -114.296719 328 2625ft 105kts
13-Feb-18 21:31 34.508415 -114.313474 328 1928ft 105kts
13-Feb-18 21:32 34.531595 -114.329992 328 1569ft 86kts
13-Feb-18 21:33 34.553626 -114.346045 329 1006ft 92kts
13-Feb-18 21:34 34.569375 -114.357015 336 756ft 15kts
13-Feb-18 21:35 34.569193 -114.358225 330 746ft 3kts
13-Feb-18 21:36 34.569918 -114.360031 247 738ft 0kts
13-Feb-18 21:37 34.569918 -114.360031 247 738ft 0kts

Navigation Log

Ident Type
Flight plan parsing failed, navigation log unavailable